createdAt,value
2023-05-23T00:02:28.436Z,100511.17
2023-05-23T00:04:58.030Z,100503.34
2023-05-23T00:07:29.010Z,100505.09
2023-05-23T00:09:58.674Z,100503.41
2023-05-23T00:12:29.202Z,100507.80
2023-05-23T00:15:02.423Z,100505.22
2023-05-23T00:17:31.589Z,100506.11
2023-05-23T00:20:01.054Z,100505.30
2023-05-23T00:22:30.162Z,100508.78
2023-05-23T00:25:01.646Z,100504.48
2023-05-23T00:27:31.722Z,100501.92
2023-05-23T00:30:02.702Z,100499.31
2023-05-23T00:32:31.743Z,100502.80
2023-05-23T00:35:01.159Z,100498.44
2023-05-23T00:37:33.660Z,100492.38
2023-05-23T00:40:02.814Z,100490.62
2023-05-23T00:42:32.632Z,100493.22
2023-05-23T00:45:02.733Z,100490.62
2023-05-23T00:47:32.622Z,100488.88
2023-05-23T00:50:01.630Z,100488.89
2023-05-23T00:52:30.879Z,100487.16
2023-05-23T00:55:04.250Z,100488.92
2023-05-23T00:57:34.790Z,100490.67
2023-05-23T01:00:04.013Z,100493.28
2023-05-23T01:02:41.070Z,100489.84
2023-05-23T01:05:20.191Z,100485.50
2023-05-23T01:07:51.193Z,100492.48
2023-05-23T01:10:23.958Z,100492.53
2023-05-23T01:13:07.341Z,100491.69
2023-05-23T01:15:44.129Z,100500.39
2023-05-23T01:18:30.144Z,100496.95
2023-05-23T01:21:03.636Z,100496.12
2023-05-23T01:24:05.306Z,100501.37
2023-05-23T01:26:48.637Z,100496.17
2023-05-23T01:29:24.838Z,100498.81
2023-05-23T01:32:00.837Z,100499.69
2023-05-23T01:34:31.420Z,100494.47
2023-05-23T01:37:10.644Z,100488.41
2023-05-23T01:39:44.418Z,100490.16
2023-05-23T01:42:13.848Z,100481.48
2023-05-23T01:44:43.400Z,100482.36
2023-05-23T01:47:19.777Z,100474.55
2023-05-23T01:49:51.039Z,100479.77
2023-05-23T01:52:23.892Z,100479.74
2023-05-23T01:54:59.268Z,100473.66
2023-05-23T01:57:36.069Z,100471.09
2023-05-23T02:00:10.480Z,100465.91
2023-05-23T02:02:43.501Z,100462.47
2023-05-23T02:05:12.982Z,100466.84
2023-05-23T02:07:42.014Z,100474.66
2023-05-23T02:10:11.886Z,100467.72
2023-05-23T02:12:43.273Z,100464.30
2023-05-23T02:15:14.461Z,100465.16
2023-05-23T02:17:53.482Z,100461.72
2023-05-23T02:20:22.782Z,100464.33
2023-05-23T02:22:54.760Z,100455.67
2023-05-23T02:25:28.353Z,100452.21
2023-05-23T02:27:59.532Z,100459.16
2023-05-23T02:30:36.133Z,100453.09
2023-05-23T02:33:14.625Z,100446.99
2023-05-23T02:35:50.386Z,100449.63
2023-05-23T02:38:20.185Z,100448.79
2023-05-23T02:40:52.961Z,100446.17
2023-05-23T02:43:22.214Z,100446.17
2023-05-23T02:45:51.298Z,100447.89
2023-05-23T02:48:26.426Z,100442.67
2023-05-23T02:50:57.273Z,100447.89
2023-05-23T02:53:27.338Z,100444.41
2023-05-23T02:55:56.684Z,100444.39
2023-05-23T02:58:28.166Z,100448.69
2023-05-23T03:00:59.016Z,100440.02
2023-05-23T03:03:31.383Z,100445.25
2023-05-23T03:06:00.609Z,100444.39
2023-05-23T03:08:29.861Z,100447.84
2023-05-23T03:10:58.762Z,100445.23
2023-05-23T03:13:32.363Z,100449.53
2023-05-23T03:16:02.413Z,100441.73
2023-05-23T03:18:43.399Z,100437.38
2023-05-23T03:21:12.752Z,100439.09
2023-05-23T03:23:41.931Z,100446.91
2023-05-23T03:26:12.391Z,100445.98
2023-05-23T03:28:44.444Z,100445.11
2023-05-23T03:31:13.293Z,100445.92
2023-05-23T03:33:44.732Z,100440.70
2023-05-23T03:36:13.808Z,100434.61
2023-05-23T03:38:45.433Z,100442.41
2023-05-23T03:41:14.495Z,100439.77
2023-05-23T03:43:45.444Z,100444.06
2023-05-23T03:47:01.350Z,100442.28
2023-05-23T03:49:58.606Z,100437.88
2023-05-23T03:52:28.352Z,100443.85
2023-05-23T03:54:57.589Z,100439.45
2023-05-23T03:57:27.188Z,100443.73
2023-05-23T03:59:56.843Z,100433.22
2023-05-23T04:02:26.097Z,100429.61
2023-05-23T04:04:56.586Z,100432.02
2023-05-23T04:07:26.843Z,100428.16
2023-05-23T04:10:00.144Z,100421.81
2023-05-23T04:12:34.053Z,100424.47
2023-05-23T04:15:11.011Z,100422.29
2023-05-23T04:17:51.114Z,100417.58
2023-05-23T04:20:22.138Z,100413.92
2023-05-23T04:22:59.119Z,100419.58
2023-05-23T04:25:31.135Z,100424.14
2023-05-23T04:28:17.304Z,100420.97
2023-05-23T04:30:48.854Z,100418.21
2023-05-23T04:33:21.197Z,100415.45
2023-05-23T04:35:53.048Z,100415.82
2023-05-23T04:38:25.141Z,100416.86
2023-05-23T04:40:57.392Z,100410.70
2023-05-23T04:43:29.562Z,100410.67
2023-05-23T04:46:09.657Z,100413.16
2023-05-23T04:48:51.472Z,100400.67
2023-05-23T04:51:27.496Z,100398.71
2023-05-23T04:54:06.459Z,100400.23
2023-05-23T04:56:37.979Z,100398.53
2023-05-23T04:59:08.241Z,100388.47
2023-05-23T05:01:53.091Z,100394.34
2023-05-23T05:04:29.028Z,100393.56
2023-05-23T05:07:05.841Z,100393.91
2023-05-23T05:09:38.173Z,100385.67
2023-05-23T05:12:11.167Z,100389.13
2023-05-23T05:14:42.423Z,100383.89
2023-05-23T05:17:12.432Z,100376.73
2023-05-23T05:19:56.447Z,100382.75
2023-05-23T05:22:27.443Z,100373.41
2023-05-23T05:24:57.167Z,100373.01
2023-05-23T05:27:27.839Z,100367.86
2023-05-23T05:30:07.468Z,100374.89
2023-05-23T05:32:41.693Z,100377.16
2023-05-23T05:35:13.518Z,100372.69
2023-05-23T05:37:50.468Z,100372.55
2023-05-23T05:40:22.824Z,100371.37
2023-05-23T05:42:53.054Z,100369.63
2023-05-23T05:45:29.739Z,100374.43
2023-05-23T05:48:12.378Z,100374.34
2023-05-23T05:50:44.808Z,100376.34
2023-05-23T05:53:20.064Z,100374.90
2023-05-23T05:55:50.348Z,100366.02
2023-05-23T05:58:21.644Z,100368.07
2023-05-23T06:01:15.058Z,100369.11
2023-05-23T06:03:47.916Z,100361.61
2023-05-23T06:06:20.349Z,100364.89
2023-05-23T06:08:50.397Z,100362.17
2023-05-23T06:11:20.043Z,100356.13
2023-05-23T06:13:55.127Z,100368.91
2023-05-23T06:17:00.489Z,100360.62
2023-05-23T06:19:30.892Z,100364.17
2023-05-23T06:22:03.586Z,100356.70
2023-05-23T06:24:47.169Z,100359.06
2023-05-23T06:27:19.690Z,100360.27
2023-05-23T06:29:56.402Z,100362.91
2023-05-23T06:32:26.547Z,100359.14
2023-05-23T06:34:57.515Z,100353.41
2023-05-23T06:37:27.059Z,100354.30
2023-05-23T06:39:58.233Z,100347.89
2023-05-23T06:42:28.409Z,100347.30
2023-05-23T06:45:11.123Z,100347.70
2023-05-23T06:47:43.312Z,100345.94
2023-05-23T06:50:19.637Z,100342.09
2023-05-23T06:52:51.330Z,100333.23
2023-05-23T06:55:21.309Z,100332.44
2023-05-23T06:57:57.851Z,100339.13
2023-05-23T07:00:28.777Z,100338.73
2023-05-23T07:03:18.809Z,100332.13
2023-05-23T07:05:51.296Z,100336.77
2023-05-23T07:08:21.951Z,100328.06
2023-05-23T07:10:58.830Z,100323.47
2023-05-23T07:13:37.048Z,100326.99
2023-05-23T07:16:07.149Z,100319.52
2023-05-23T07:18:39.418Z,100317.27
2023-05-23T07:21:08.654Z,100314.23
2023-05-23T07:23:40.900Z,100309.67
2023-05-23T07:26:11.263Z,100307.28
2023-05-23T07:28:51.008Z,100303.28
2023-05-23T07:31:22.625Z,100311.63
2023-05-23T07:33:59.033Z,100300.23
2023-05-23T07:36:35.656Z,100301.06
2023-05-23T07:39:09.298Z,100295.44
2023-05-23T07:41:38.843Z,100293.45
2023-05-23T07:44:10.051Z,100295.04
2023-05-23T07:46:53.130Z,100291.11
2023-05-23T07:49:26.184Z,100288.14
2023-05-23T07:51:57.653Z,100286.44
2023-05-23T07:54:27.262Z,100280.67
2023-05-23T07:57:06.810Z,100284.59
2023-05-23T07:59:36.750Z,100283.77
2023-05-23T08:02:06.308Z,100286.87
2023-05-23T08:04:43.054Z,100282.19
2023-05-23T08:07:12.477Z,100280.08
2023-05-23T08:10:01.589Z,100281.17
2023-05-23T08:12:33.867Z,100275.61
2023-05-23T08:15:11.496Z,100285.73
2023-05-23T08:17:50.250Z,100285.20
2023-05-23T08:20:30.038Z,100274.77
2023-05-23T08:23:01.911Z,100274.33
2023-05-23T08:25:31.839Z,100278.58
2023-05-23T08:28:15.048Z,100271.66
2023-05-23T08:30:50.178Z,100267.05
2023-05-23T08:33:20.196Z,100272.13
2023-05-23T08:35:50.757Z,100262.95
2023-05-23T08:38:23.748Z,100258.48
2023-05-23T08:41:23.184Z,100261.33
2023-05-23T08:43:55.167Z,100257.98
2023-05-23T08:46:30.309Z,100256.83
2023-05-23T08:49:00.570Z,100251.28
2023-05-23T08:51:31.368Z,100247.05
2023-05-23T08:54:03.264Z,100251.38
2023-05-23T08:56:40.753Z,100241.98
2023-05-23T08:59:17.075Z,100242.42
2023-05-23T09:01:58.234Z,100243.55
2023-05-23T09:04:32.018Z,100234.70
2023-05-23T09:07:06.821Z,100248.17
2023-05-23T09:09:36.753Z,100238.20
2023-05-23T09:12:09.932Z,100241.94
2023-05-23T09:14:49.625Z,100252.59
2023-05-23T09:17:24.043Z,100237.52
2023-05-23T09:19:54.406Z,100233.61
2023-05-23T09:22:51.464Z,100234.98
2023-05-23T09:25:22.519Z,100238.58
2023-05-23T09:27:54.534Z,100221.70
2023-05-23T09:30:34.606Z,100225.14
2023-05-23T09:33:09.667Z,100232.08
2023-05-23T09:35:46.748Z,100225.42
2023-05-23T09:38:20.798Z,100219.20
2023-05-23T09:40:50.519Z,100224.71
2023-05-23T09:43:25.639Z,100223.59
2023-05-23T09:46:06.872Z,100226.78
2023-05-23T09:48:35.785Z,100218.11
2023-05-23T09:51:21.026Z,100215.30
2023-05-23T09:53:51.690Z,100215.43
2023-05-23T09:56:28.943Z,100217.05
2023-05-23T09:59:01.200Z,100211.95
2023-05-23T10:01:33.617Z,100216.92
2023-05-23T10:04:10.824Z,100209.83
2023-05-23T10:06:49.630Z,100208.75
2023-05-23T10:09:25.151Z,100214.53
2023-05-23T10:12:36.855Z,100220.08
2023-05-23T10:15:10.021Z,100207.72
2023-05-23T10:17:56.573Z,100211.56
2023-05-23T10:20:31.847Z,100205.72
2023-05-23T10:23:01.669Z,100200.80
2023-05-23T10:25:30.789Z,100204.21
2023-05-23T10:28:03.942Z,100201.25
2023-05-23T10:30:44.389Z,100197.34
2023-05-23T10:33:19.580Z,100198.49
2023-05-23T10:35:59.649Z,100200.73
2023-05-23T10:38:36.610Z,100195.31
2023-05-23T10:41:19.032Z,100196.77
2023-05-23T10:43:57.495Z,100198.10
2023-05-23T10:46:57.015Z,100184.77
2023-05-23T10:49:48.989Z,100188.42
2023-05-23T10:52:19.001Z,100190.36
2023-05-23T10:54:51.094Z,100197.89
2023-05-23T10:57:27.218Z,100192.50
2023-05-23T10:59:59.468Z,100182.58
2023-05-23T11:02:32.090Z,100183.69
2023-05-23T11:05:22.559Z,100181.59
2023-05-23T11:08:17.405Z,100179.77
2023-05-23T11:11:02.959Z,100181.90
2023-05-23T11:13:56.444Z,100178.53
2023-05-23T11:16:29.768Z,100172.91
2023-05-23T11:19:27.609Z,100183.49
2023-05-23T11:21:59.794Z,100175.44
2023-05-23T11:24:51.144Z,100167.80
2023-05-23T11:27:30.800Z,100167.22
2023-05-23T11:30:01.311Z,100167.39
2023-05-23T11:32:31.461Z,100155.13
2023-05-23T11:35:05.581Z,100159.59
2023-05-23T11:37:37.860Z,100153.84
2023-05-23T11:40:29.556Z,100160.41
2023-05-23T11:42:59.470Z,100150.35
2023-05-23T11:45:31.884Z,100147.50
2023-05-23T11:48:17.267Z,100149.09
2023-05-23T11:50:50.933Z,100147.52
2023-05-23T11:53:21.581Z,100136.90
2023-05-23T11:55:54.906Z,100138.75
2023-05-23T11:58:23.304Z,100145.20
2023-05-23T12:00:55.060Z,100137.02
2023-05-23T12:03:27.608Z,100136.59
2023-05-23T12:05:57.838Z,100135.89
2023-05-23T12:08:26.709Z,100132.02
2023-05-23T12:10:58.982Z,100132.42
2023-05-23T12:13:30.164Z,100140.78
2023-05-23T12:16:01.664Z,100134.08
2023-05-23T12:18:35.292Z,100132.97
2023-05-23T12:21:08.142Z,100134.66
2023-05-23T12:23:39.402Z,100125.27
2023-05-23T12:26:12.778Z,100128.73
2023-05-23T12:28:44.342Z,100135.19
2023-05-23T12:31:17.809Z,100126.48
2023-05-23T12:33:48.391Z,100132.58
2023-05-23T12:36:24.004Z,100122.13
2023-05-23T12:39:02.237Z,100118.65
2023-05-23T12:41:32.590Z,100118.78
2023-05-23T12:44:03.783Z,100116.66
2023-05-23T12:46:32.854Z,100124.08
2023-05-23T12:49:01.819Z,100118.63
2023-05-23T12:51:33.089Z,100118.63
2023-05-23T12:54:02.138Z,100114.09
2023-05-23T12:56:32.188Z,100103.89
2023-05-23T12:59:05.525Z,100107.64
2023-05-23T13:01:40.827Z,100101.80
2023-05-23T13:04:10.062Z,100101.47
2023-05-23T13:06:39.460Z,100100.64
2023-05-23T13:09:11.950Z,100104.39
2023-05-23T13:11:42.117Z,100100.42
2023-05-23T13:14:14.561Z,100098.31
2023-05-23T13:16:47.432Z,100094.28
2023-05-23T13:19:24.230Z,100090.63
2023-05-23T13:21:53.960Z,100091.63
2023-05-23T13:24:24.359Z,100096.81
2023-05-23T13:26:53.748Z,100091.79
2023-05-23T13:29:22.678Z,100092.42
2023-05-23T13:31:55.121Z,100095.72
2023-05-23T13:34:24.108Z,100086.80
2023-05-23T13:36:53.200Z,100089.80
2023-05-23T13:39:22.404Z,100083.61
2023-05-23T13:41:53.794Z,100086.02
2023-05-23T13:44:22.803Z,100092.97
2023-05-23T13:47:12.527Z,100090.02
2023-05-23T13:49:43.144Z,100082.25
2023-05-23T13:52:15.341Z,100077.75
2023-05-23T13:54:46.034Z,100076.92
2023-05-23T13:57:15.183Z,100077.63
2023-05-23T13:59:44.847Z,100077.44
2023-05-23T14:02:13.891Z,100073.06
2023-05-23T14:04:43.136Z,100071.55
2023-05-23T14:07:14.416Z,100075.78
2023-05-23T14:09:44.435Z,100074.64
2023-05-23T14:12:13.434Z,100074.08
2023-05-23T14:14:42.665Z,100071.41
2023-05-23T14:17:21.411Z,100071.39
2023-05-23T14:19:51.088Z,100072.38
2023-05-23T14:22:22.212Z,100072.67
2023-05-23T14:24:54.256Z,100064.91
2023-05-23T14:27:23.915Z,100065.59
2023-05-23T14:29:55.495Z,100061.92
2023-05-23T14:32:24.452Z,100068.41
2023-05-23T14:34:54.742Z,100068.55
2023-05-23T14:37:23.566Z,100060.39
2023-05-23T14:39:53.389Z,100056.00
2023-05-23T14:42:25.110Z,100056.85
2023-05-23T14:44:54.300Z,100062.38
2023-05-23T14:47:23.138Z,100050.39
2023-05-23T14:49:52.368Z,100052.62
2023-05-23T14:52:24.510Z,100048.95
2023-05-23T14:54:53.624Z,100049.88
2023-05-23T14:57:25.508Z,100060.45
2023-05-23T14:59:59.787Z,100057.02
2023-05-23T15:02:29.410Z,100052.22
2023-05-23T15:04:58.733Z,100057.06
2023-05-23T15:07:28.087Z,100053.56
2023-05-23T15:09:57.584Z,100051.30
2023-05-23T15:12:32.680Z,100049.82
2023-05-23T15:15:03.696Z,100053.03
2023-05-23T15:17:33.842Z,100055.34
2023-05-23T15:20:05.323Z,100047.44
2023-05-23T15:22:40.467Z,100041.25
2023-05-23T15:25:33.902Z,100042.23
2023-05-23T15:28:15.571Z,100039.95
2023-05-23T15:30:49.087Z,100039.75
2023-05-23T15:33:23.043Z,100040.53
2023-05-23T15:35:55.275Z,100039.47
2023-05-23T15:38:24.361Z,100033.20
2023-05-23T15:40:54.906Z,100038.59
2023-05-23T15:43:25.713Z,100038.23
2023-05-23T15:45:55.054Z,100037.65
2023-05-23T15:48:24.212Z,100034.46
2023-05-23T15:50:53.304Z,100030.84
2023-05-23T15:53:25.397Z,100024.33
2023-05-23T15:55:57.227Z,100030.87
2023-05-23T15:58:32.452Z,100029.31
2023-05-23T16:01:02.908Z,100034.30
2023-05-23T16:03:34.678Z,100028.83
2023-05-23T16:06:05.259Z,100023.14
2023-05-23T16:08:37.015Z,100023.14
2023-05-23T16:11:09.009Z,100027.48
2023-05-23T16:13:40.577Z,100026.28
2023-05-23T16:16:10.697Z,100029.68
2023-05-23T16:18:40.815Z,100021.53
2023-05-23T16:21:13.166Z,100023.83
2023-05-23T16:23:42.081Z,100018.98
2023-05-23T16:26:11.375Z,100013.50
2023-05-23T16:28:43.251Z,100016.40
2023-05-23T16:31:18.186Z,100019.33
2023-05-23T16:33:47.108Z,100022.22
2023-05-23T16:36:17.286Z,100017.98
2023-05-23T16:38:46.633Z,100017.69
2023-05-23T16:41:17.260Z,100025.30
2023-05-23T16:43:48.844Z,100018.84
2023-05-23T16:46:22.144Z,100022.30
2023-05-23T16:51:37.710Z,100019.54
2023-05-23T16:54:09.569Z,100029.17
2023-05-23T16:56:41.004Z,100027.31
2023-05-23T16:59:10.350Z,100027.00
2023-05-23T17:01:57.092Z,100032.75
2023-05-23T17:04:26.165Z,100029.80
2023-05-23T17:06:55.259Z,100025.77
2023-05-23T17:09:24.457Z,100023.45
2023-05-23T17:11:56.453Z,100029.31
2023-05-23T17:14:28.024Z,100037.83
2023-05-23T17:16:57.010Z,100029.55
2023-05-23T17:19:27.942Z,100037.11
2023-05-23T17:21:58.533Z,100034.98
2023-05-23T17:24:33.631Z,100032.97
2023-05-23T17:27:03.939Z,100038.03
2023-05-23T17:29:35.256Z,100043.98
2023-05-23T17:32:09.568Z,100035.89
2023-05-23T17:34:42.048Z,100036.64
2023-05-23T17:37:12.680Z,100041.83
2023-05-23T17:39:42.841Z,100045.38
2023-05-23T17:42:15.266Z,100040.99
2023-05-23T17:44:46.511Z,100039.11
2023-05-23T17:47:18.278Z,100030.99
2023-05-23T17:49:48.750Z,100041.34
2023-05-23T17:52:19.073Z,100038.64
2023-05-23T17:54:49.065Z,100040.17
2023-05-23T17:57:22.984Z,100040.95
2023-05-23T17:59:56.772Z,100041.83
2023-05-23T18:02:27.586Z,100039.06
2023-05-23T18:04:59.006Z,100045.12
2023-05-23T18:07:28.277Z,100043.11
2023-05-23T18:09:59.121Z,100040.25
2023-05-23T18:12:28.456Z,100041.86
2023-05-23T18:14:59.257Z,100039.84
2023-05-23T18:17:29.947Z,100034.98
2023-05-23T18:19:59.788Z,100042.64
2023-05-23T18:22:32.797Z,100041.52
2023-05-23T18:25:02.121Z,100042.99
2023-05-23T18:27:37.121Z,100050.53
2023-05-23T18:30:22.953Z,100052.77
2023-05-23T18:33:01.614Z,100048.84
2023-05-23T18:35:39.982Z,100057.11
2023-05-23T18:38:14.899Z,100068.15
2023-05-23T18:40:44.981Z,100067.70
2023-05-23T18:43:20.627Z,100069.92
2023-05-23T18:45:50.549Z,100076.49
2023-05-23T18:48:27.898Z,100072.45
2023-05-23T18:51:02.641Z,100080.73
2023-05-23T18:53:33.807Z,100077.44
2023-05-23T18:56:08.302Z,100073.33
2023-05-23T18:58:38.809Z,100084.25
2023-05-23T19:01:11.017Z,100086.27
2023-05-23T19:03:40.758Z,100085.77
2023-05-23T19:06:10.204Z,100087.78
2023-05-23T19:08:41.883Z,100089.89
2023-05-23T19:11:11.632Z,100083.13
2023-05-23T19:13:40.812Z,100086.86
2023-05-23T19:16:13.751Z,100086.16
2023-05-23T19:18:42.773Z,100088.12
2023-05-23T19:21:17.888Z,100088.27
2023-05-23T19:23:48.554Z,100085.08
2023-05-23T19:26:20.465Z,100094.26
2023-05-23T19:28:50.528Z,100093.70
2023-05-23T19:31:27.121Z,100095.89
2023-05-23T19:33:57.689Z,100094.50
2023-05-23T19:36:31.000Z,100093.03
2023-05-23T19:39:00.167Z,100099.56
2023-05-23T19:41:29.267Z,100094.64
2023-05-23T19:43:58.037Z,100098.44
2023-05-23T19:46:28.214Z,100099.59
2023-05-23T19:48:57.435Z,100103.38
2023-05-23T19:51:29.724Z,100100.12
2023-05-23T19:53:58.889Z,100095.12
2023-05-23T19:56:29.058Z,100099.69
2023-05-23T19:58:58.147Z,100098.90
2023-05-23T20:01:29.467Z,100109.59
2023-05-23T20:03:58.342Z,100100.97
2023-05-23T20:06:27.454Z,100106.38
2023-05-23T20:08:56.484Z,100103.11
2023-05-23T20:11:28.725Z,100105.88
2023-05-23T20:14:00.600Z,100105.17
2023-05-23T20:16:29.782Z,100102.67
2023-05-23T20:18:59.199Z,100107.95
2023-05-23T20:21:30.663Z,100106.23
2023-05-23T20:24:02.151Z,100115.94
2023-05-23T20:26:32.528Z,100118.58
2023-05-23T20:29:09.321Z,100123.93
2023-05-23T20:31:54.049Z,100123.06
2023-05-23T20:34:23.467Z,100120.42
2023-05-23T20:36:53.172Z,100118.70
2023-05-23T20:39:23.612Z,100122.27
2023-05-23T20:41:54.429Z,100123.14
2023-05-23T20:44:23.315Z,100120.55
2023-05-23T20:46:57.279Z,100119.71
2023-05-23T20:49:26.479Z,100113.56
2023-05-23T20:51:57.816Z,100118.08
2023-05-23T20:54:27.655Z,100118.92
2023-05-23T20:56:57.032Z,100116.28
2023-05-23T20:59:25.953Z,100117.20
2023-05-23T21:01:55.053Z,100121.47
2023-05-23T21:04:28.267Z,100112.64
2023-05-23T21:06:57.408Z,100115.23
2023-05-23T21:09:26.320Z,100123.19
2023-05-23T21:12:14.501Z,100118.08
2023-05-23T21:14:44.774Z,100112.02
2023-05-23T21:17:15.398Z,100119.05
2023-05-23T21:19:46.056Z,100120.05
2023-05-23T21:22:15.541Z,100116.62
2023-05-23T21:24:54.046Z,100111.52
2023-05-23T21:27:22.934Z,100115.07
2023-05-23T21:29:52.258Z,100118.67
2023-05-23T21:32:23.496Z,100120.52
2023-05-23T21:34:52.694Z,100122.28
2023-05-23T21:37:21.704Z,100117.93
2023-05-23T21:39:52.337Z,100117.01
2023-05-23T21:42:22.100Z,100118.85
2023-05-23T21:44:53.831Z,100115.50
2023-05-23T21:47:24.846Z,100124.28
2023-05-23T21:49:54.243Z,100122.48
2023-05-23T21:52:23.294Z,100127.76
2023-05-23T21:54:52.260Z,100130.39
2023-05-23T21:57:21.687Z,100120.85
2023-05-23T21:59:50.554Z,100125.25
2023-05-23T22:02:25.436Z,100126.00
2023-05-23T22:04:54.619Z,100130.19
2023-05-23T22:07:25.518Z,100129.30
2023-05-23T22:09:55.767Z,100125.74
2023-05-23T22:12:25.486Z,100125.66
2023-05-23T22:14:55.133Z,100126.38
2023-05-23T22:17:25.809Z,100120.18
2023-05-23T22:19:56.753Z,100117.41
2023-05-23T22:22:26.514Z,100112.06
2023-05-23T22:24:55.320Z,100114.65
2023-05-23T22:27:25.288Z,100119.00
2023-05-23T22:29:54.625Z,100124.19
2023-05-23T22:32:28.163Z,100118.92
2023-05-23T22:34:58.505Z,100116.28
2023-05-23T22:37:27.542Z,100121.47
2023-05-23T22:39:57.592Z,100125.06
2023-05-23T22:42:26.818Z,100118.00
2023-05-23T22:44:56.233Z,100127.70
2023-05-23T22:47:25.499Z,100126.83
2023-05-23T22:49:56.023Z,100129.55
2023-05-23T22:52:25.408Z,100134.95
2023-05-23T22:54:54.969Z,100130.73
2023-05-23T22:57:24.004Z,100130.89
2023-05-23T22:59:55.482Z,100120.39
2023-05-23T23:02:26.887Z,100124.82
2023-05-23T23:04:57.212Z,100121.19
2023-05-23T23:07:27.436Z,100121.05
2023-05-23T23:09:56.849Z,100124.48
2023-05-23T23:12:25.762Z,100120.05
2023-05-23T23:14:57.658Z,100118.29
2023-05-23T23:17:26.592Z,100111.14
2023-05-23T23:20:00.190Z,100110.22
2023-05-23T23:22:30.548Z,100114.70
2023-05-23T23:25:02.150Z,100105.95
2023-05-23T23:27:31.950Z,100109.51
2023-05-23T23:30:00.957Z,100107.74
2023-05-23T23:32:31.229Z,100108.59
2023-05-23T23:35:01.524Z,100105.11
2023-05-23T23:37:32.044Z,100101.68
2023-05-23T23:40:00.780Z,100105.16
2023-05-23T23:42:29.954Z,100099.05
2023-05-23T23:44:59.162Z,100094.69
2023-05-23T23:47:29.719Z,100096.53
2023-05-23T23:50:00.564Z,100099.17
2023-05-23T23:52:32.413Z,100097.45
2023-05-23T23:55:01.683Z,100098.46
2023-05-23T23:57:31.856Z,100100.30
